createdAt,value
2022-11-09T00:02:47.588Z,5.10
2022-11-09T00:05:59.538Z,5.40
2022-11-09T00:09:07.894Z,5.10
2022-11-09T00:12:11.384Z,5.00
2022-11-09T00:15:14.395Z,4.90
2022-11-09T00:18:17.363Z,4.33
2022-11-09T00:21:25.541Z,6.20
2022-11-09T00:24:30.128Z,4.23
2022-11-09T00:27:33.068Z,4.47
2022-11-09T00:30:36.082Z,4.30
2022-11-09T00:33:39.691Z,4.40
2022-11-09T00:36:44.722Z,4.93
2022-11-09T00:39:47.660Z,4.33
2022-11-09T00:42:50.888Z,4.47
2022-11-09T00:45:53.837Z,4.40
2022-11-09T00:48:57.352Z,4.87
2022-11-09T00:52:01.800Z,4.03
2022-11-09T00:55:06.519Z,5.67
2022-11-09T00:58:09.449Z,5.00
2022-11-09T01:01:15.324Z,4.43
2022-11-09T01:04:19.531Z,5.00
2022-11-09T01:07:23.967Z,4.57
2022-11-09T01:10:26.904Z,3.73
2022-11-09T01:13:30.439Z,4.20
2022-11-09T01:16:33.390Z,4.13
2022-11-09T01:19:36.452Z,3.90
2022-11-09T01:22:40.722Z,4.40
2022-11-09T01:25:44.727Z,4.27
2022-11-09T01:28:48.138Z,3.47
2022-11-09T01:31:51.050Z,4.70
2022-11-09T01:34:54.158Z,3.77
2022-11-09T01:37:58.422Z,3.87
2022-11-09T01:41:01.722Z,4.07
2022-11-09T01:44:08.852Z,3.93
2022-11-09T01:47:25.957Z,3.97
2022-11-09T01:50:37.734Z,4.13
2022-11-09T01:53:47.414Z,4.13
2022-11-09T01:56:57.496Z,4.20
2022-11-09T02:00:07.394Z,3.83
2022-11-09T02:03:23.103Z,3.87
2022-11-09T02:06:29.949Z,3.87
2022-11-09T02:09:42.190Z,3.93
2022-11-09T02:12:46.464Z,3.80
2022-11-09T02:15:51.041Z,4.73
2022-11-09T02:18:56.637Z,3.70
2022-11-09T02:22:02.507Z,4.50
2022-11-09T02:25:09.814Z,4.30
2022-11-09T02:28:15.359Z,4.50
2022-11-09T02:31:20.456Z,5.43
2022-11-09T02:34:26.160Z,4.30
2022-11-09T02:37:34.531Z,4.40
2022-11-09T02:40:41.854Z,4.53
2022-11-09T02:43:45.142Z,4.40
2022-11-09T02:46:48.441Z,3.60
2022-11-09T02:49:51.714Z,4.17
2022-11-09T02:52:57.457Z,4.67
2022-11-09T02:56:00.609Z,5.07
2022-11-09T02:59:04.254Z,4.10
2022-11-09T03:02:08.687Z,4.03
2022-11-09T03:05:11.974Z,4.40
2022-11-09T03:08:19.760Z,4.37
2022-11-09T03:11:23.876Z,3.90
2022-11-09T03:14:26.987Z,3.73
2022-11-09T03:17:34.253Z,4.63
2022-11-09T03:20:37.302Z,4.00
2022-11-09T03:23:42.047Z,3.97
2022-11-09T03:26:45.081Z,3.73
2022-11-09T03:29:48.799Z,4.20
2022-11-09T03:32:53.838Z,3.87
2022-11-09T03:35:57.201Z,4.07
2022-11-09T03:39:01.656Z,4.60
2022-11-09T03:42:04.956Z,4.53
2022-11-09T03:45:09.641Z,3.97
2022-11-09T03:48:12.604Z,3.40
2022-11-09T03:51:15.896Z,3.97
2022-11-09T03:54:20.846Z,3.47
2022-11-09T03:57:23.834Z,4.10
2022-11-09T04:00:26.771Z,4.13
2022-11-09T04:03:30.539Z,3.60
2022-11-09T04:06:33.570Z,3.70
2022-11-09T04:09:37.990Z,3.33
2022-11-09T04:12:40.921Z,3.97
2022-11-09T04:15:44.563Z,3.97
2022-11-09T04:18:47.478Z,3.90
2022-11-09T04:21:50.830Z,4.10
2022-11-09T04:24:55.467Z,4.80
2022-11-09T04:27:59.693Z,4.40
2022-11-09T04:31:03.149Z,4.67
2022-11-09T04:34:06.109Z,3.90
2022-11-09T04:37:09.108Z,4.20
2022-11-09T04:40:14.263Z,4.00
2022-11-09T04:43:17.380Z,4.33
2022-11-09T04:46:20.463Z,3.43
2022-11-09T04:49:23.899Z,3.87
2022-11-09T04:52:26.815Z,5.30
2022-11-09T04:55:31.179Z,4.37
2022-11-09T04:58:34.514Z,4.43
2022-11-09T05:01:37.459Z,4.10
2022-11-09T05:04:40.406Z,4.43
2022-11-09T05:07:43.538Z,6.07
2022-11-09T05:10:47.782Z,5.83
2022-11-09T05:13:51.910Z,5.33
2022-11-09T05:16:55.177Z,5.33
2022-11-09T05:19:58.116Z,4.73
2022-11-09T05:23:19.633Z,5.13
2022-11-09T05:26:24.381Z,5.80
2022-11-09T05:29:27.316Z,5.27
2022-11-09T05:32:30.242Z,5.80
2022-11-09T05:35:34.761Z,4.97
2022-11-09T05:38:37.685Z,5.13
2022-11-09T05:41:43.814Z,5.13
2022-11-09T05:44:46.752Z,5.17
2022-11-09T05:47:50.127Z,4.37
2022-11-09T05:50:53.062Z,4.43
2022-11-09T05:53:59.304Z,6.30
2022-11-09T05:57:03.897Z,4.97
2022-11-09T06:00:11.060Z,5.13
2022-11-09T06:03:15.951Z,5.40
2022-11-09T06:06:19.015Z,5.63
2022-11-09T06:09:21.960Z,5.47
2022-11-09T06:12:26.189Z,5.33
2022-11-09T06:15:29.765Z,6.00
2022-11-09T06:18:34.842Z,4.93
2022-11-09T06:21:37.839Z,5.77
2022-11-09T06:24:41.188Z,5.33
2022-11-09T06:27:45.451Z,5.60
2022-11-09T06:30:48.468Z,5.30
2022-11-09T06:33:51.808Z,5.37
2022-11-09T06:36:55.070Z,6.17
2022-11-09T06:39:57.992Z,5.53
2022-11-09T06:43:02.475Z,5.77
2022-11-09T06:46:06.608Z,7.90
2022-11-09T06:49:09.627Z,6.30
2022-11-09T06:52:12.577Z,6.30
2022-11-09T06:55:15.736Z,4.87
2022-11-09T06:58:20.789Z,5.43
2022-11-09T07:01:28.592Z,5.60
2022-11-09T07:04:31.594Z,5.97
2022-11-09T07:07:34.971Z,5.70
2022-11-09T07:10:38.441Z,4.87
2022-11-09T07:13:43.080Z,5.13
2022-11-09T07:16:46.060Z,5.10
2022-11-09T07:19:48.992Z,6.57
2022-11-09T07:22:51.937Z,5.23
2022-11-09T07:25:55.209Z,7.03
2022-11-09T07:28:59.459Z,6.73
2022-11-09T07:32:02.382Z,6.70
2022-11-09T07:35:07.597Z,6.33
2022-11-09T07:38:10.616Z,6.00
2022-11-09T07:41:13.576Z,6.53
2022-11-09T07:44:18.787Z,6.60
2022-11-09T07:47:22.134Z,6.60
2022-11-09T07:50:25.280Z,5.87
2022-11-09T07:53:28.241Z,5.83
2022-11-09T07:56:31.202Z,6.73
2022-11-09T07:59:35.497Z,6.37
2022-11-09T08:02:38.469Z,6.77
2022-11-09T08:05:41.622Z,6.10
2022-11-09T08:08:44.634Z,5.63
2022-11-09T08:11:47.742Z,7.17
2022-11-09T08:14:52.035Z,7.20
2022-11-09T08:17:55.478Z,9.03
2022-11-09T08:20:58.448Z,7.97
2022-11-09T08:24:01.385Z,7.20
2022-11-09T08:27:04.316Z,7.77
2022-11-09T08:30:14.336Z,8.27
2022-11-09T08:33:17.426Z,6.03
2022-11-09T08:36:20.596Z,7.10
2022-11-09T08:39:23.761Z,6.27
2022-11-09T08:42:26.747Z,6.00
2022-11-09T08:45:33.857Z,6.37
2022-11-09T08:48:36.855Z,8.40
2022-11-09T08:51:39.867Z,7.80
2022-11-09T08:54:45.456Z,6.57
2022-11-09T08:57:48.508Z,6.90
2022-11-09T09:00:52.902Z,7.23
2022-11-09T09:03:55.933Z,6.63
2022-11-09T09:07:00.272Z,7.77
2022-11-09T09:10:03.637Z,7.63
2022-11-09T09:13:06.718Z,6.40
2022-11-09T09:16:16.370Z,6.40
2022-11-09T09:19:19.316Z,6.77
2022-11-09T09:22:22.349Z,6.37
2022-11-09T09:25:25.508Z,7.83
2022-11-09T09:28:28.757Z,7.90
2022-11-09T09:31:33.091Z,6.73
2022-11-09T09:34:36.044Z,7.83
2022-11-09T09:37:39.240Z,7.50
2022-11-09T09:40:55.930Z,8.87
2022-11-09T09:44:10.015Z,7.27
2022-11-09T09:47:20.266Z,7.03
2022-11-09T09:50:27.594Z,8.80
2022-11-09T09:53:36.755Z,10.87
2022-11-09T09:56:43.304Z,7.67
2022-11-09T09:59:50.962Z,6.20
2022-11-09T10:02:56.213Z,7.70
2022-11-09T10:06:10.365Z,6.57
2022-11-09T10:09:29.562Z,6.80
2022-11-09T10:12:42.746Z,6.73
2022-11-09T10:15:53.925Z,7.20
2022-11-09T10:19:26.782Z,6.87
2022-11-09T10:22:40.661Z,8.80
2022-11-09T10:26:03.756Z,8.57
2022-11-09T10:29:24.064Z,9.53
2022-11-09T10:32:32.767Z,9.17
2022-11-09T10:35:42.165Z,6.73
2022-11-09T10:38:51.321Z,7.83
2022-11-09T10:42:13.261Z,6.87
2022-11-09T10:45:37.374Z,5.57
2022-11-09T10:49:19.879Z,5.60
2022-11-09T10:52:47.245Z,5.97
2022-11-09T10:56:20.711Z,6.90
2022-11-09T10:59:50.077Z,6.67
2022-11-09T11:03:16.716Z,7.10
2022-11-09T11:06:38.765Z,5.90
2022-11-09T11:10:12.159Z,5.83
2022-11-09T11:13:33.912Z,6.43
2022-11-09T11:16:56.201Z,5.03
2022-11-09T11:20:31.174Z,4.87
2022-11-09T11:24:15.914Z,6.00
2022-11-09T11:27:44.434Z,4.47
2022-11-09T11:31:11.362Z,7.75
2022-11-09T11:34:58.650Z,7.57
2022-11-09T11:38:28.655Z,6.35
2022-11-09T11:42:08.083Z,5.10
2022-11-09T11:45:41.103Z,5.13
2022-11-09T11:49:48.473Z,5.00
2022-11-09T11:53:24.577Z,4.90
2022-11-09T11:56:51.122Z,5.32
2022-11-09T12:00:16.148Z,5.22
2022-11-09T12:04:02.716Z,4.65
2022-11-09T12:07:35.052Z,4.00
2022-11-09T12:11:04.954Z,5.15
2022-11-09T12:14:44.284Z,5.45
2022-11-09T12:18:17.602Z,4.95
2022-11-09T12:21:47.424Z,7.35
2022-11-09T12:25:20.597Z,3.30
2022-11-09T12:29:06.918Z,3.63
2022-11-09T12:32:39.738Z,3.95
2022-11-09T12:36:07.675Z,4.43
2022-11-09T12:39:37.664Z,3.80
2022-11-09T12:43:05.513Z,3.85
2022-11-09T12:46:37.866Z,3.60
2022-11-09T12:50:00.004Z,3.53
2022-11-09T12:54:32.163Z,4.10
2022-11-09T12:58:00.587Z,4.28
2022-11-09T13:01:46.260Z,3.42
2022-11-09T13:05:32.184Z,3.47
2022-11-09T13:09:02.842Z,3.40
2022-11-09T13:12:35.690Z,4.55
2022-11-09T13:16:33.917Z,3.25
2022-11-09T13:19:56.978Z,3.30
2022-11-09T13:23:54.698Z,2.97
2022-11-09T13:27:47.037Z,3.40
2022-11-09T13:31:11.621Z,3.55
2022-11-09T13:34:46.719Z,3.40
2022-11-09T13:38:16.995Z,3.25
2022-11-09T13:41:44.395Z,3.10
2022-11-09T13:45:37.634Z,4.25
2022-11-09T13:49:00.647Z,5.38
2022-11-09T13:52:51.718Z,3.30
2022-11-09T13:56:23.543Z,2.92
2022-11-09T13:59:50.131Z,3.20
2022-11-09T14:03:20.857Z,3.47
2022-11-09T14:06:43.875Z,2.90
2022-11-09T14:10:25.281Z,3.58
2022-11-09T14:14:09.539Z,7.47
2022-11-09T14:17:43.212Z,5.10
2022-11-09T14:21:34.130Z,4.15
2022-11-09T14:24:57.187Z,4.80
2022-11-09T14:28:24.234Z,6.77
2022-11-09T14:31:46.442Z,3.57
2022-11-09T14:35:25.939Z,3.45
2022-11-09T14:38:49.349Z,3.60
2022-11-09T14:42:20.466Z,4.25
2022-11-09T14:45:50.391Z,6.47
2022-11-09T14:49:13.910Z,3.43
2022-11-09T14:52:35.990Z,4.93
2022-11-09T14:56:03.536Z,4.60
2022-11-09T14:59:32.336Z,3.57
2022-11-09T15:02:58.102Z,4.80
2022-11-09T15:06:20.101Z,4.40
2022-11-09T15:09:45.790Z,4.30
2022-11-09T15:13:07.678Z,4.00
2022-11-09T15:16:32.678Z,4.03
2022-11-09T15:19:57.666Z,3.87
2022-11-09T15:23:39.329Z,4.10
2022-11-09T15:27:01.171Z,5.47
2022-11-09T15:30:32.479Z,4.00
2022-11-09T15:33:57.536Z,4.33
2022-11-09T15:37:31.806Z,4.90
2022-11-09T15:40:55.842Z,4.67
2022-11-09T15:44:17.821Z,4.97
2022-11-09T15:47:39.741Z,6.70
2022-11-09T15:51:02.868Z,5.17
2022-11-09T15:54:25.683Z,4.97
2022-11-09T15:57:47.129Z,5.47
2022-11-09T16:01:11.012Z,5.57
2022-11-09T16:04:32.628Z,4.90
2022-11-09T16:07:56.215Z,4.30
2022-11-09T16:11:18.251Z,4.67
2022-11-09T16:14:40.342Z,5.43
2022-11-09T16:18:01.982Z,5.97
2022-11-09T16:21:24.686Z,6.47
2022-11-09T16:24:48.320Z,6.30
2022-11-09T16:28:10.454Z,5.63
2022-11-09T16:35:29.168Z,6.73
2022-11-09T16:38:54.104Z,7.07
2022-11-09T16:42:18.659Z,7.77
2022-11-09T16:45:46.871Z,7.30
2022-11-09T16:49:08.707Z,9.37
2022-11-09T16:52:30.276Z,10.93
2022-11-09T16:55:51.874Z,11.50
2022-11-09T16:59:14.786Z,11.50
2022-11-09T17:02:36.822Z,8.47
2022-11-09T17:06:01.579Z,8.00
2022-11-09T17:09:23.298Z,7.50
2022-11-09T17:12:45.137Z,7.23
2022-11-09T17:16:10.794Z,9.70
2022-11-09T17:19:33.207Z,7.57
2022-11-09T17:22:54.753Z,6.80
2022-11-09T17:26:16.949Z,6.20
2022-11-09T17:29:39.733Z,7.43
2022-11-09T17:33:02.614Z,7.00
2022-11-09T17:36:48.841Z,7.40
2022-11-09T17:40:08.250Z,7.47
2022-11-09T17:43:31.266Z,11.90
2022-11-09T17:46:52.844Z,9.13
2022-11-09T17:50:16.825Z,8.10
2022-11-09T17:53:38.761Z,7.90
2022-11-09T17:57:02.377Z,8.07
2022-11-09T18:00:24.724Z,7.07
2022-11-09T18:03:46.605Z,7.93
2022-11-09T18:07:09.967Z,7.30
2022-11-09T18:10:31.426Z,6.80
2022-11-09T18:13:53.026Z,7.77
2022-11-09T18:17:14.678Z,7.07
2022-11-09T18:20:38.760Z,7.07
2022-11-09T18:24:01.802Z,7.27
2022-11-09T18:27:28.972Z,9.43
2022-11-09T18:30:51.974Z,8.83
2022-11-09T18:34:13.565Z,9.50
2022-11-09T18:37:36.300Z,9.10
2022-11-09T18:41:02.369Z,8.97
2022-11-09T18:44:24.434Z,9.17
2022-11-09T18:47:49.191Z,8.77
2022-11-09T18:51:12.760Z,8.73
2022-11-09T18:54:35.569Z,7.13
2022-11-09T18:57:58.582Z,9.23
2022-11-09T19:01:23.495Z,7.13
2022-11-09T19:04:45.981Z,10.83
2022-11-09T19:08:09.557Z,11.77
2022-11-09T19:11:32.428Z,11.33
2022-11-09T19:14:55.831Z,9.30
2022-11-09T19:18:18.012Z,9.07
2022-11-09T19:21:42.674Z,8.83
2022-11-09T19:25:04.498Z,8.83
2022-11-09T19:28:26.545Z,10.13
2022-11-09T19:31:49.710Z,8.27
2022-11-09T19:35:11.585Z,7.67
2022-11-09T19:38:33.179Z,7.97
2022-11-09T19:41:54.784Z,7.73
2022-11-09T19:45:17.197Z,9.20
2022-11-09T19:48:45.476Z,9.83
2022-11-09T19:52:07.470Z,7.97
2022-11-09T19:55:29.670Z,9.17
2022-11-09T19:58:54.020Z,9.37
2022-11-09T20:02:16.118Z,7.13
2022-11-09T20:05:39.286Z,6.97
2022-11-09T20:09:01.531Z,8.40
2022-11-09T20:12:40.943Z,10.23
2022-11-09T20:16:04.085Z,9.77
2022-11-09T20:19:25.532Z,9.27
2022-11-09T20:22:48.567Z,13.97
2022-11-09T20:26:13.258Z,10.60
2022-11-09T20:29:35.289Z,9.93
2022-11-09T20:32:57.313Z,10.57
2022-11-09T20:36:19.710Z,11.03
2022-11-09T20:39:45.298Z,11.57
2022-11-09T20:43:07.108Z,12.00
2022-11-09T20:46:34.510Z,13.47
2022-11-09T20:49:58.490Z,10.87
2022-11-09T20:53:23.608Z,10.33
2022-11-09T20:56:46.981Z,12.17
2022-11-09T21:00:10.778Z,11.53
2022-11-09T21:03:32.632Z,10.37
2022-11-09T21:06:54.747Z,9.53
2022-11-09T21:10:16.663Z,10.53
2022-11-09T21:13:41.295Z,11.30
2022-11-09T21:17:03.086Z,12.10
2022-11-09T21:20:25.179Z,9.33
2022-11-09T21:24:04.535Z,8.10
2022-11-09T21:27:44.213Z,8.13
2022-11-09T21:31:10.628Z,8.33
2022-11-09T21:34:36.517Z,9.23
2022-11-09T21:37:58.957Z,7.53
2022-11-09T21:41:38.277Z,8.47
2022-11-09T21:44:59.856Z,8.70
2022-11-09T21:48:22.996Z,6.80
2022-11-09T21:51:44.510Z,6.77
2022-11-09T21:55:06.904Z,8.97
2022-11-09T21:58:28.485Z,7.43
2022-11-09T22:01:50.005Z,6.33
2022-11-09T22:05:13.127Z,6.03
2022-11-09T22:08:37.273Z,6.57
2022-11-09T22:12:19.718Z,6.40
2022-11-09T22:15:58.810Z,7.40
2022-11-09T22:19:38.177Z,7.03
2022-11-09T22:23:05.899Z,7.93
2022-11-09T22:26:28.378Z,5.80
2022-11-09T22:29:50.002Z,6.53
2022-11-09T22:33:11.439Z,5.17
2022-11-09T22:36:32.765Z,5.40
2022-11-09T22:39:55.844Z,6.27
2022-11-09T22:43:17.567Z,6.30
2022-11-09T22:46:39.907Z,6.10
2022-11-09T22:50:01.874Z,4.63
2022-11-09T22:53:23.961Z,4.37
2022-11-09T22:56:49.032Z,4.30
2022-11-09T23:00:15.396Z,4.60
2022-11-09T23:03:37.209Z,4.17
2022-11-09T23:06:58.773Z,4.10
2022-11-09T23:10:20.448Z,3.80
2022-11-09T23:13:44.595Z,4.03
2022-11-09T23:17:26.665Z,3.60
2022-11-09T23:20:49.275Z,4.43
2022-11-09T23:24:31.492Z,4.97
2022-11-09T23:27:53.590Z,4.83
2022-11-09T23:31:23.533Z,4.50
2022-11-09T23:34:45.052Z,4.53
2022-11-09T23:38:07.462Z,4.60
2022-11-09T23:41:30.302Z,3.23
2022-11-09T23:44:52.097Z,3.97
2022-11-09T23:48:18.459Z,3.30
2022-11-09T23:51:40.285Z,4.90
2022-11-09T23:55:01.889Z,4.10
2022-11-09T23:58:23.815Z,3.50
